Terminal Aerodrome Forecast
Issued by NWS Portland, OR

Home | Current Version | Previous Version | Text Only | Print | Product List | Glossary On
Versions: 1 2 3 4 5 6 7 8 9 10 11 12 13 14 15
000
FTUS46 KPQR 260526
TAFAST
TAF
KAST 260526Z 2606/2706 22007KT 5SM BR OVC006
     FM261800 26008KT P6SM OVC009
     FM270000 27008KT P6SM OVC007=

USA.gov is the U.S. government's official web portal to all federal, state and local government web resources and services.